Aérodrome :
LOGIN :

S'inscrire | Disclaimer

   EN    FR    IT 

 










Légende :    VFR   VFR Marginal   IFR   IFR Intensif   IFR Très Intensif
Visi : 
Plafond : 
>= 8 km
>= 3000ft
5 à 8 km
1000 à 3000 ft
1500m à 5 km
500 à 1000 ft
800 à 1500m
200 à 500 ft
< 800m
< 200 ft
Symboles :   Orages  Brouillard  Fortes neiges  Fortes précipitations  Vent > 20 kt
SIGMETs :   Divers  Orages  Givrage  Turbulence  Onde Orograph.  Cendres Volcan.







- Altitude de l'aérodrome : 25 ft
- Code IATA : QCY


EGXC - RAF Coningsby

DERNIER METAR :
  • 200350Z 21006KT 9999 -RA OVC050 12/10 Q1011 BLU

METARs EXPIRÉS :
  • 200250Z 20006KT 9999 -RA OVC060 12/10 Q1011 BLU
  • 200150Z 23008KT 9999 -RA FEW050 OVC060 14/08 Q1011 BLU

TAF TAF EGXC
Valide du 20 à 03h jusqu'au 20 à 21h UTC


200142Z 2003/2021 23010KT 9999 BKN040
TEMPO 2003/2006 7000 -RA BKN018
TEMPO 2006/2015 4000 +RA BKN008
PROB30
TEMPO 2006/2013 2500 RADZ SCT005
BECMG 2013/2015 19018G28KT
Pas de NOTAMs connus pour ce terrain.
2 SIGMETs publiés pour la FIR London (EGTT) :
 
Turbulence forte
EGTT SIGMET 02 VALID 200100/200500 EGRR
EGTT LONDON FIR SEV TURB FCST WI N5500 E00000 - N5418 W00223 - N5500 W00530 - N5500 E00000 SFC/FL060 MOV N 05KT WKN=
Onde orographique forte
EGTT SIGMET 01 VALID 200100/200500 EGRR
EGTT LONDON FIR SEV MTW FCST WI N5500 E00020 - N5416 E00049 - N5314 W00250 - N5500 W00530 - N5500 E00020 FL030/250 MOV N 10KT WKN=



MET'MAP, la Météo Aéronautique d'un coup d'oeil ! - Copyright ORBIFLY Décembre 2007 - Disclaimer

ORBIFLY MET'MAP TEAM :

Programmation & Développement : Alexandra Zaïnal
Conception & Développement : Baudouin d'Aumeries
Co-Programmation & Développement : Marc-Olivier Méhu
Soutien technique & logistique : Manuel Goepfert

Contact : metmap@orbifly.com




SOURCES & CREDITS :

   NOAA